createdAt,value
2023-01-11T00:01:24.707Z,2.00
2023-01-11T00:03:56.626Z,2.22
2023-01-11T00:06:28.678Z,2.05
2023-01-11T00:09:00.935Z,2.08
2023-01-11T00:11:33.147Z,1.60
2023-01-11T00:14:05.658Z,2.25
2023-01-11T00:16:37.867Z,2.13
2023-01-11T00:19:09.964Z,1.77
2023-01-11T00:21:42.371Z,1.98
2023-01-11T00:24:14.367Z,1.88
2023-01-11T00:26:46.966Z,1.60
2023-01-11T00:29:18.956Z,1.40
2023-01-11T00:31:53.366Z,1.70
2023-01-11T00:34:25.453Z,1.60
2023-01-11T00:36:57.653Z,2.13
2023-01-11T00:39:29.704Z,1.75
2023-01-11T00:42:20.499Z,1.40
2023-01-11T00:45:11.304Z,1.40
2023-01-11T00:47:58.706Z,1.92
2023-01-11T00:50:34.721Z,1.48
2023-01-11T00:53:08.474Z,1.38
2023-01-11T00:55:40.415Z,1.60
2023-01-11T00:58:12.457Z,1.98
2023-01-11T01:00:44.493Z,1.60
2023-01-11T01:03:17.210Z,1.37
2023-01-11T01:05:53.994Z,1.40
2023-01-11T01:08:25.930Z,1.65
2023-01-11T01:10:57.923Z,1.30
2023-01-11T01:13:48.570Z,1.55
2023-01-11T01:16:20.924Z,1.88
2023-01-11T01:18:53.672Z,1.55
2023-01-11T01:21:26.603Z,1.70
2023-01-11T01:23:59.170Z,1.33
2023-01-11T01:26:31.200Z,1.60
2023-01-11T01:29:03.535Z,1.30
2023-01-11T01:31:35.652Z,1.45
2023-01-11T01:34:09.202Z,1.75
2023-01-11T01:39:14.166Z,1.50
2023-01-11T01:41:46.143Z,2.00
2023-01-11T01:44:55.384Z,2.30
2023-01-11T01:47:36.103Z,2.15
2023-01-11T01:50:32.055Z,2.00
2023-01-11T01:53:10.012Z,1.60
2023-01-11T01:55:46.006Z,1.80
2023-01-11T01:58:23.298Z,1.73
2023-01-11T02:00:55.353Z,1.75
2023-01-11T02:03:27.692Z,1.60
2023-01-11T02:05:59.718Z,1.10
2023-01-11T02:08:37.243Z,1.00
2023-01-11T02:11:31.719Z,0.90
2023-01-11T02:14:07.964Z,1.20
2023-01-11T02:16:39.964Z,1.10
2023-01-11T02:19:37.622Z,1.27
2023-01-11T02:22:47.243Z,1.10
2023-01-11T02:25:50.665Z,1.38
2023-01-11T02:28:35.883Z,1.10
2023-01-11T02:31:23.328Z,1.02
2023-01-11T02:34:06.673Z,1.10
2023-01-11T02:37:16.124Z,1.40
2023-01-11T02:40:16.892Z,1.23
2023-01-11T02:43:13.323Z,1.10
2023-01-11T02:46:21.802Z,0.90
2023-01-11T02:49:08.476Z,0.90
2023-01-11T02:51:50.112Z,0.80
2023-01-11T02:54:24.268Z,1.60
2023-01-11T02:57:00.284Z,1.30
2023-01-11T02:59:35.005Z,1.50
2023-01-11T03:02:07.036Z,1.15
2023-01-11T03:04:40.068Z,1.35
2023-01-11T03:07:18.221Z,1.40
2023-01-11T03:10:18.401Z,1.08
2023-01-11T03:13:13.992Z,1.00
2023-01-11T03:15:53.831Z,1.50
2023-01-11T03:19:10.704Z,1.00
2023-01-11T03:22:10.143Z,1.27
2023-01-11T03:24:42.103Z,1.38
2023-01-11T03:27:38.841Z,2.15
2023-01-11T03:30:22.881Z,1.27
2023-01-11T03:33:10.765Z,1.10
2023-01-11T03:35:58.905Z,1.50
2023-01-11T03:38:41.172Z,1.10
2023-01-11T03:41:19.802Z,1.50
2023-01-11T03:43:54.363Z,1.58
2023-01-11T03:46:34.839Z,1.70
2023-01-11T03:49:22.524Z,1.45
2023-01-11T03:51:56.461Z,1.70
2023-01-11T03:54:31.358Z,1.20
2023-01-11T03:57:08.784Z,1.27
2023-01-11T03:59:41.440Z,1.38
2023-01-11T04:02:22.280Z,1.37
2023-01-11T04:04:54.782Z,1.27
2023-01-11T04:07:26.783Z,1.40
2023-01-11T04:09:58.937Z,1.45
2023-01-11T04:12:31.533Z,1.30
2023-01-11T04:15:05.365Z,1.30
2023-01-11T04:17:37.551Z,1.30
2023-01-11T04:20:10.792Z,1.50
2023-01-11T04:22:42.832Z,1.23
2023-01-11T04:25:14.825Z,1.30
2023-01-11T04:27:47.379Z,1.20
2023-01-11T04:30:20.761Z,1.17
2023-01-11T04:32:53.618Z,1.15
2023-01-11T04:35:26.279Z,1.20
2023-01-11T04:37:58.383Z,1.23
2023-01-11T04:40:30.780Z,1.25
2023-01-11T04:43:04.076Z,1.40
2023-01-11T04:45:36.258Z,1.70
2023-01-11T04:48:08.618Z,1.00
2023-01-11T04:50:40.991Z,1.33
2023-01-11T04:53:13.143Z,1.42
2023-01-11T04:55:45.126Z,1.38
2023-01-11T04:58:17.102Z,1.30
2023-01-11T05:00:49.247Z,1.10
2023-01-11T05:03:21.589Z,1.42
2023-01-11T05:05:58.202Z,1.30
2023-01-11T05:08:31.091Z,1.17
2023-01-11T05:11:07.057Z,1.33
2023-01-11T05:13:41.735Z,1.45
2023-01-11T05:16:17.875Z,0.98
2023-01-11T05:18:52.738Z,1.20
2023-01-11T05:21:27.383Z,1.10
2023-01-11T05:24:01.565Z,1.27
2023-01-11T05:26:35.861Z,1.30
2023-01-11T05:29:11.056Z,1.10
2023-01-11T05:31:43.401Z,1.00
2023-01-11T05:34:17.129Z,1.20
2023-01-11T05:36:49.082Z,1.85
2023-01-11T05:39:23.146Z,1.17
2023-01-11T05:41:55.611Z,1.00
2023-01-11T05:44:46.442Z,1.08
2023-01-11T05:47:18.961Z,1.50
2023-01-11T05:49:51.371Z,1.38
2023-01-11T05:52:23.445Z,1.10
2023-01-11T05:54:55.541Z,1.10
2023-01-11T05:57:27.762Z,1.50
2023-01-11T05:59:59.708Z,1.38
2023-01-11T06:02:31.834Z,1.52
2023-01-11T06:05:04.931Z,1.25
2023-01-11T06:07:37.049Z,0.90
2023-01-11T06:10:10.162Z,1.98
2023-01-11T06:12:42.446Z,1.38
2023-01-11T06:15:14.837Z,1.13
2023-01-11T06:17:46.783Z,1.48
2023-01-11T06:20:18.993Z,1.38
2023-01-11T06:22:51.086Z,1.35
2023-01-11T06:25:23.024Z,1.42
2023-01-11T06:27:55.172Z,1.45
2023-01-11T06:30:27.319Z,1.50
2023-01-11T06:33:06.101Z,1.25
2023-01-11T06:35:40.838Z,1.30
2023-01-11T06:38:15.138Z,1.38
2023-01-11T06:40:58.971Z,1.40
2023-01-11T06:43:32.522Z,1.75
2023-01-11T06:46:05.261Z,2.00
2023-01-11T06:48:37.464Z,2.07
2023-01-11T06:51:12.885Z,2.00
2023-01-11T06:53:46.554Z,2.17
2023-01-11T06:56:21.881Z,2.08
2023-01-11T06:58:54.230Z,2.10
2023-01-11T07:01:26.947Z,2.03
2023-01-11T07:03:59.258Z,1.92
2023-01-11T07:06:35.181Z,1.83
2023-01-11T07:09:07.258Z,1.58
2023-01-11T07:11:39.368Z,2.13
2023-01-11T07:14:15.094Z,1.80
2023-01-11T07:16:48.096Z,1.60
2023-01-11T07:21:52.642Z,1.45
2023-01-11T07:24:25.289Z,2.00
2023-01-11T07:26:59.741Z,1.88
2023-01-11T07:29:31.762Z,1.77
2023-01-11T07:32:04.951Z,1.88
2023-01-11T07:34:37.858Z,1.83
2023-01-11T07:37:29.245Z,1.80
2023-01-11T07:40:01.638Z,1.60
2023-01-11T07:42:52.336Z,1.70
2023-01-11T07:45:31.498Z,1.90
2023-01-11T07:48:10.694Z,1.75
2023-01-11T07:50:44.736Z,2.38
2023-01-11T07:53:19.009Z,2.38
2023-01-11T07:55:51.032Z,2.38
2023-01-11T07:58:23.620Z,2.30
2023-01-11T08:00:55.783Z,2.13
2023-01-11T08:03:28.018Z,2.83
2023-01-11T08:06:00.259Z,2.65
2023-01-11T08:08:32.779Z,2.17
2023-01-11T08:11:23.622Z,2.80
2023-01-11T08:14:14.153Z,2.95
2023-01-11T08:16:46.990Z,2.50
2023-01-11T08:19:19.283Z,2.38
2023-01-11T08:21:52.372Z,2.80
2023-01-11T08:24:24.629Z,2.20
2023-01-11T08:26:56.762Z,2.10
2023-01-11T08:29:28.971Z,2.10
2023-01-11T08:32:01.299Z,1.70
2023-01-11T08:34:35.178Z,1.60
2023-01-11T08:37:07.328Z,1.80
2023-01-11T08:39:40.531Z,1.20
2023-01-11T08:42:12.529Z,2.25
2023-01-11T08:44:45.132Z,1.52
2023-01-11T08:47:17.588Z,2.20
2023-01-11T08:49:50.011Z,2.00
2023-01-11T08:52:22.653Z,2.50
2023-01-11T08:54:54.770Z,3.08
2023-01-11T08:57:26.753Z,2.88
2023-01-11T08:59:58.776Z,2.78
2023-01-11T09:02:30.782Z,2.50
2023-01-11T09:05:03.325Z,2.53
2023-01-11T09:07:35.308Z,2.40
2023-01-11T09:10:07.788Z,2.47
2023-01-11T09:12:40.121Z,2.50
2023-01-11T09:15:12.471Z,2.80
2023-01-11T09:17:46.833Z,2.80
2023-01-11T09:20:20.574Z,3.33
2023-01-11T09:22:53.233Z,2.45
2023-01-11T09:25:25.315Z,2.30
2023-01-11T09:27:57.456Z,2.20
2023-01-11T09:30:29.567Z,2.10
2023-01-11T09:33:01.746Z,2.22
2023-01-11T09:35:35.052Z,2.22
2023-01-11T09:38:07.190Z,2.22
2023-01-11T09:40:57.273Z,2.67
2023-01-11T09:43:31.207Z,2.10
2023-01-11T09:46:08.526Z,1.90
2023-01-11T09:48:48.461Z,1.92
2023-01-11T09:51:23.100Z,2.25
2023-01-11T09:53:58.367Z,2.08
2023-01-11T09:56:37.992Z,2.00
2023-01-11T09:59:31.208Z,2.42
2023-01-11T10:02:28.021Z,1.77
2023-01-11T10:05:06.348Z,2.70
2023-01-11T16:10:46.623Z,1.00
2023-01-11T16:13:41.945Z,1.25
2023-01-11T16:16:22.415Z,1.20
2023-01-11T16:19:03.985Z,1.50
2023-01-11T16:21:41.079Z,1.40
2023-01-11T16:24:29.726Z,1.13
2023-01-11T16:27:04.038Z,1.30
2023-01-11T16:29:37.400Z,1.30
2023-01-11T16:35:20.678Z,1.63
2023-01-11T16:38:01.567Z,1.50
2023-01-11T16:40:42.607Z,1.10
2023-01-11T16:43:25.771Z,1.50
2023-01-11T16:45:58.444Z,1.10
2023-01-11T16:48:30.931Z,1.42
2023-01-11T16:51:04.682Z,1.73
2023-01-11T16:53:42.430Z,1.55
2023-01-11T16:56:21.157Z,1.35
2023-01-11T16:59:15.129Z,1.02
2023-01-11T17:01:54.830Z,1.10
2023-01-11T17:04:48.820Z,1.60
2023-01-11T17:07:27.564Z,2.47
2023-01-11T17:10:16.890Z,2.28
2023-01-11T17:13:33.871Z,1.80
2023-01-11T17:16:11.784Z,2.22
2023-01-11T17:18:44.245Z,1.60
2023-01-11T17:21:23.383Z,1.63
2023-01-11T17:24:00.337Z,1.10
2023-01-11T17:26:42.844Z,1.70
2023-01-11T17:29:28.447Z,1.10
2023-01-11T17:32:03.992Z,1.83
2023-01-11T17:34:38.548Z,1.42
2023-01-11T17:37:14.343Z,2.10
2023-01-11T17:39:55.647Z,3.60
2023-01-11T17:43:06.659Z,2.67
2023-01-11T17:45:39.054Z,2.22
2023-01-11T17:48:16.890Z,3.30
2023-01-11T17:51:00.031Z,1.63
2023-01-11T17:53:36.498Z,1.88
2023-01-11T17:56:34.787Z,2.05
2023-01-11T17:59:21.464Z,2.88
2023-01-11T18:01:58.282Z,2.70
2023-01-11T18:04:31.869Z,2.30
2023-01-11T18:07:19.213Z,2.97
2023-01-11T18:09:58.342Z,2.30
2023-01-11T18:12:33.936Z,3.00
2023-01-11T18:15:07.081Z,3.80
2023-01-11T18:17:40.849Z,2.83
2023-01-11T18:20:15.899Z,3.00
2023-01-11T18:22:54.087Z,3.10
2023-01-11T18:25:31.924Z,3.88
2023-01-11T18:28:19.272Z,3.40
